createdAt,value
2018-04-16T00:00:04.906Z,47
2018-04-16T00:15:05.010Z,46
2018-04-16T00:30:04.803Z,47
2018-04-16T00:45:05.227Z,46
2018-04-16T01:00:05.326Z,46
2018-04-16T01:15:04.723Z,46
2018-04-16T01:30:05.037Z,47
2018-04-16T01:45:04.812Z,47
2018-04-16T02:00:04.783Z,46
2018-04-16T02:15:05.458Z,46
2018-04-16T02:30:04.638Z,47
2018-04-16T02:45:04.747Z,47
2018-04-16T03:00:04.531Z,47
2018-04-16T03:15:05.009Z,47
2018-04-16T03:30:05.304Z,47
2018-04-16T03:45:04.800Z,49
2018-04-16T04:00:05.506Z,48
2018-04-16T04:15:04.427Z,48
2018-04-16T04:30:04.475Z,48
2018-04-16T04:45:05.203Z,50
2018-04-16T05:00:04.946Z,51
2018-04-16T05:15:05.032Z,49
2018-04-16T05:30:05.237Z,50
2018-04-16T05:45:04.591Z,49
2018-04-16T06:00:04.539Z,52
2018-04-16T06:15:05.010Z,53
2018-04-16T06:30:04.661Z,51
2018-04-16T06:45:05.582Z,47
2018-04-16T07:00:04.998Z,51
2018-04-16T07:15:04.972Z,48
2018-04-16T07:30:04.821Z,48
2018-04-16T07:45:04.746Z,49
2018-04-16T08:00:05.188Z,50
2018-04-16T08:15:05.204Z,49
2018-04-16T08:30:04.910Z,50
2018-04-16T08:45:04.402Z,56
2018-04-16T09:00:04.779Z,57
2018-04-16T09:15:05.256Z,53
2018-04-16T09:30:04.853Z,50
2018-04-16T09:45:04.867Z,49
2018-04-16T10:00:04.781Z,51
2018-04-16T10:15:04.768Z,49
2018-04-16T10:30:04.392Z,50
2018-04-16T10:45:05.293Z,50
2018-04-16T11:00:04.773Z,50
2018-04-16T11:15:05.154Z,52
2018-04-16T11:30:04.835Z,50
2018-04-16T11:45:04.777Z,51
2018-04-16T12:00:05.243Z,49
2018-04-16T12:15:05.404Z,48
2018-04-16T12:30:05.059Z,50
2018-04-16T12:45:04.647Z,48
2018-04-16T13:00:05.080Z,54
2018-04-16T13:15:04.797Z,51
2018-04-16T13:30:04.592Z,47
2018-04-16T13:45:04.682Z,46
2018-04-16T14:00:05.326Z,47
2018-04-16T14:15:05.312Z,48
2018-04-16T14:30:04.536Z,49
2018-04-16T14:45:04.552Z,47
2018-04-16T15:00:04.816Z,48
2018-04-16T15:15:05.280Z,48
2018-04-16T15:30:04.440Z,48
2018-04-16T15:45:05.019Z,48
2018-04-16T16:00:05.068Z,48
2018-04-16T16:15:04.902Z,47
2018-04-16T16:30:05.655Z,49
2018-04-16T16:45:04.670Z,49
2018-04-16T17:00:05.148Z,49
2018-04-16T17:15:04.591Z,50
2018-04-16T17:30:04.989Z,50
2018-04-16T17:45:05.326Z,49
2018-04-16T18:00:04.847Z,48
2018-04-16T18:15:04.892Z,50
2018-04-16T18:30:04.785Z,47
2018-04-16T18:45:04.772Z,47
2018-04-16T19:00:05.484Z,48
2018-04-16T19:15:04.978Z,47
2018-04-16T19:30:04.793Z,48
2018-04-16T19:45:05.147Z,48
2018-04-16T20:00:05.261Z,48
2018-04-16T20:15:05.978Z,47
2018-04-16T20:30:05.181Z,48
2018-04-16T20:45:05.551Z,46
2018-04-16T21:00:05.022Z,47
2018-04-16T21:15:05.146Z,47
2018-04-16T21:30:04.387Z,49
2018-04-16T21:45:04.637Z,46
2018-04-16T22:00:04.746Z,47
2018-04-16T22:15:04.798Z,47
2018-04-16T22:30:04.491Z,47
2018-04-16T22:45:04.822Z,46
2018-04-16T23:00:05.753Z,46
2018-04-16T23:15:04.863Z,46
2018-04-16T23:30:04.556Z,46
2018-04-16T23:45:05.358Z,46
